Time;durP1;ratioP1;P1;durP2;ratioP2;P2;SDS_P1;SDS_P2;PMS_P1;PMS_P2;Temp;Humidity;BMP_temperature;BMP_pressure;BME280_temperature;BME280_humidity;BME280_pressure;Samples;Min_cycle;Max_cycle;Signal;HPM_P1;HPM_P2
2023/09/20 00:02:41;;;;;;;6.25;3.08;;;19.70;91.20;;;;;;4013706;29;20118;-59
2023/09/20 00:05:23;;;;;;;5.28;3.00;;;19.70;91.40;;;;;;4012747;29;20052;-59
2023/09/20 00:08:05;;;;;;;4.55;2.97;;;19.70;91.20;;;;;;4012716;29;20056;-59
2023/09/20 00:10:46;;;;;;;7.05;2.70;;;19.70;91.20;;;;;;3998396;29;20430;-59
2023/09/20 00:13:28;;;;;;;4.38;2.35;;;19.70;91.60;;;;;;4004986;29;20061;-59
2023/09/20 00:16:09;;;;;;;4.70;2.40;;;19.70;91.20;;;;;;4013317;29;20416;-59
2023/09/20 00:18:50;;;;;;;5.47;2.60;;;19.70;91.30;;;;;;4013782;29;20130;-59
2023/09/20 00:21:31;;;;;;;4.80;2.55;;;19.70;91.30;;;;;;4014242;29;20059;-60
2023/09/20 00:24:13;;;;;;;3.75;2.53;;;19.70;91.40;;;;;;4013627;29;20533;-60
2023/09/20 00:26:53;;;;;;;7.85;2.95;;;19.70;91.40;;;;;;3998593;29;20102;-60
2023/09/20 00:29:37;;;;;;;4.18;2.80;;;19.70;91.70;;;;;;4008469;29;20402;-60
2023/09/20 00:32:18;;;;;;;4.78;3.13;;;19.70;91.50;;;;;;4013677;29;20189;-60
2023/09/20 00:34:59;;;;;;;6.18;2.92;;;19.70;91.90;;;;;;4013723;29;20109;-60
2023/09/20 00:37:41;;;;;;;7.45;3.10;;;19.70;91.60;;;;;;4002263;29;20089;-59
2023/09/20 00:40:22;;;;;;;6.70;2.85;;;19.70;91.60;;;;;;4000714;29;20057;-60
2023/09/20 00:43:06;;;;;;;9.63;3.60;;;19.70;91.60;;;;;;4012931;29;20060;-63
2023/09/20 00:45:50;;;;;;;8.07;3.65;;;19.70;91.70;;;;;;4013399;29;20060;-60
2023/09/20 00:48:32;;;;;;;7.88;3.20;;;19.70;91.70;;;;;;4013322;29;20057;-59
2023/09/20 00:51:14;;;;;;;10.35;3.53;;;19.70;91.70;;;;;;4013749;29;20108;-60
2023/09/20 00:53:58;;;;;;;7.40;3.90;;;19.70;91.70;;;;;;4013818;29;20529;-59
2023/09/20 00:56:39;;;;;;;6.63;3.63;;;19.60;91.70;;;;;;4013644;29;20069;-60
2023/09/20 00:59:21;;;;;;;;;;;19.70;91.70;;;;;;4002369;29;20068;-52
2023/09/20 01:02:06;;;;;;;6.47;3.70;;;19.60;91.60;;;;;;4013332;29;20399;-52
2023/09/20 01:04:47;;;;;;;7.57;3.35;;;19.70;91.60;;;;;;4013212;29;20064;-52
2023/09/20 01:07:28;;;;;;;6.70;3.28;;;19.70;91.70;;;;;;4013036;29;20069;-51
2023/09/20 01:10:10;;;;;;;8.18;3.80;;;19.70;91.70;;;;;;4001485;29;20076;-55
2023/09/20 01:12:54;;;;;;;7.68;3.60;;;19.70;91.70;;;;;;4013152;29;20064;-54
2023/09/20 01:15:36;;;;;;;10.30;3.92;;;19.70;91.70;;;;;;4013158;29;20109;-52
2023/09/20 01:18:19;;;;;;;9.70;3.35;;;19.70;91.70;;;;;;4013353;29;20056;-55
2023/09/20 01:21:00;;;;;;;9.73;3.22;;;19.70;91.60;;;;;;3999587;29;20130;-55
2023/09/20 01:23:43;;;;;;;7.60;3.40;;;19.70;91.60;;;;;;4013412;29;20068;-55
2023/09/20 01:26:25;;;;;;;7.15;3.78;;;19.70;91.60;;;;;;4013267;29;20425;-51
2023/09/20 01:29:06;;;;;;;10.48;3.53;;;19.70;91.60;;;;;;4013039;29;20549;-54
2023/09/20 01:31:47;;;;;;;10.07;3.60;;;19.70;91.60;;;;;;4012727;29;20133;-56
2023/09/20 01:34:29;;;;;;;7.75;3.58;;;19.70;91.60;;;;;;4012317;29;20079;-53
2023/09/20 01:37:10;;;;;;;9.20;3.90;;;19.70;91.60;;;;;;4012591;29;20060;-53
2023/09/20 01:39:53;;;;;;;10.38;3.60;;;19.70;91.60;;;;;;4013026;29;20060;-55
2023/09/20 01:42:34;;;;;;;6.43;3.30;;;19.70;91.60;;;;;;4012528;29;20064;-52
2023/09/20 01:45:18;;;;;;;9.98;3.22;;;19.70;91.60;;;;;;4011595;29;20052;-52
2023/09/20 01:48:00;;;;;;;6.85;3.50;;;19.70;91.60;;;;;;3997087;29;20061;-56
2023/09/20 01:50:42;;;;;;;7.13;3.22;;;19.70;91.60;;;;;;3986325;29;20141;-55
2023/09/20 01:53:25;;;;;;;;;;;19.70;91.60;;;;;;3997993;29;20187;-54
2023/09/20 01:56:07;;;;;;;9.45;3.33;;;19.70;91.60;;;;;;4003068;29;19983;-56
2023/09/20 01:58:50;;;;;;;7.22;3.33;;;19.60;91.50;;;;;;4027416;29;20181;-55
2023/09/20 02:01:31;;;;;;;;;;;19.70;91.50;;;;;;4027808;29;20135;-54
2023/09/20 02:04:12;;;;;;;8.23;3.22;;;19.70;91.50;;;;;;4026954;29;19930;-51
2023/09/20 02:06:54;;;;;;;10.55;2.83;;;19.70;91.50;;;;;;4011159;29;20056;-54
2023/09/20 02:09:35;;;;;;;6.50;3.25;;;19.60;91.50;;;;;;4012740;29;20052;-53
2023/09/20 02:12:17;;;;;;;;;;;19.60;91.50;;;;;;4001649;29;20072;-53
2023/09/20 02:14:59;;;;;;;8.38;3.17;;;19.70;91.50;;;;;;4012591;29;19941;-53
2023/09/20 02:17:39;;;;;;;5.55;2.70;;;19.70;91.40;;;;;;4012374;29;20057;-54
2023/09/20 02:20:23;;;;;;;6.60;2.72;;;19.70;91.40;;;;;;4012681;29;20088;-55
2023/09/20 02:23:06;;;;;;;8.38;3.20;;;19.70;91.40;;;;;;4011366;29;20068;-54
2023/09/20 02:25:48;;;;;;;8.30;2.70;;;19.60;91.30;;;;;;4001055;29;20520;-54
2023/09/20 02:28:30;;;;;;;6.53;3.00;;;19.70;91.40;;;;;;3997492;29;20512;-56
2023/09/20 02:31:11;;;;;;;5.32;2.90;;;19.70;91.30;;;;;;3997035;29;20088;-53
2023/09/20 02:33:53;;;;;;;5.35;2.83;;;19.70;91.20;;;;;;3996362;29;20061;-56
2023/09/20 02:36:35;;;;;;;7.10;2.60;;;19.70;91.20;;;;;;4001609;29;20060;-54
2023/09/20 02:39:18;;;;;;;7.15;2.85;;;19.70;91.60;;;;;;4000986;29;20056;-55
2023/09/20 02:41:59;;;;;;;7.38;3.00;;;19.70;91.20;;;;;;4011780;29;20512;-59
2023/09/20 02:44:45;;;;;;;6.32;3.03;;;19.70;91.10;;;;;;4000716;29;20068;-59
2023/09/20 02:47:28;;;;;;;6.38;2.72;;;19.70;91.10;;;;;;4011240;29;20121;-59
2023/09/20 02:50:11;;;;;;;;;;;19.70;91.10;;;;;;4012464;29;20105;-59
2023/09/20 02:52:54;;;;;;;10.30;3.28;;;19.70;91.10;;;;;;4011659;29;19935;-59
2023/09/20 02:55:37;;;;;;;9.13;3.03;;;19.60;91.00;;;;;;4011027;29;20532;-59
2023/09/20 02:58:18;;;;;;;7.50;2.80;;;19.70;91.10;;;;;;3996027;29;20084;-59
2023/09/20 03:01:02;;;;;;;7.63;3.03;;;19.70;91.40;;;;;;3996997;29;20069;-59
2023/09/20 03:03:43;;;;;;;6.32;3.22;;;19.70;91.00;;;;;;4015529;29;20063;-59
2023/09/20 03:06:24;;;;;;;3.58;2.65;;;19.70;91.00;;;;;;4015301;29;20060;-59
2023/09/20 03:09:06;;;;;;;5.07;2.85;;;19.70;91.40;;;;;;4016692;29;20056;-59
2023/09/20 03:11:48;;;;;;;10.30;4.07;;;19.70;91.00;;;;;;4004999;29;20057;-59
2023/09/20 03:14:30;;;;;;;6.38;3.00;;;19.70;91.00;;;;;;4005698;29;20140;-59
2023/09/20 03:17:13;;;;;;;7.72;3.20;;;19.70;91.00;;;;;;4005586;29;20082;-59
2023/09/20 03:19:54;;;;;;;8.18;2.67;;;19.70;91.00;;;;;;4005418;29;20100;-59
2023/09/20 03:22:36;;;;;;;;;;;19.70;91.00;;;;;;4005645;29;20056;-59
2023/09/20 03:25:17;;;;;;;5.05;2.58;;;19.70;90.90;;;;;;4000629;29;19936;-59
2023/09/20 03:27:58;;;;;;;;;;;19.70;90.90;;;;;;4004731;29;20059;-60
2023/09/20 03:30:39;;;;;;;6.78;2.72;;;19.70;90.90;;;;;;4016599;29;20280;-61
2023/09/20 03:33:23;;;;;;;4.10;2.50;;;19.70;90.90;;;;;;4005227;29;20184;-59
2023/09/20 03:36:15;;;;;;;4.50;2.72;;;19.60;90.90;;;;;;4005273;29;20413;-59
2023/09/20 03:38:57;;;;;;;5.32;2.38;;;19.70;91.00;;;;;;4012775;29;20076;-58
2023/09/20 03:41:39;;;;;;;;;;;19.70;91.00;;;;;;4015852;29;20272;-58
2023/09/20 03:44:22;;;;;;;6.57;2.70;;;19.70;90.90;;;;;;4015961;29;20402;-59
2023/09/20 03:47:03;;;;;;;4.70;2.80;;;19.60;90.90;;;;;;4015267;29;20112;-54
2023/09/20 03:49:46;;;;;;;8.00;2.70;;;19.70;91.00;;;;;;4005157;29;20063;-55
2023/09/20 03:52:28;;;;;;;7.40;2.85;;;19.70;91.00;;;;;;4015849;29;20057;-54
2023/09/20 03:55:09;;;;;;;7.95;2.83;;;19.70;91.00;;;;;;4005363;29;20576;-55
2023/09/20 03:57:50;;;;;;;5.93;2.50;;;19.70;91.00;;;;;;4005131;29;20112;-55
2023/09/20 04:00:34;;;;;;;6.03;2.45;;;19.70;91.00;;;;;;4016268;29;20496;-55
2023/09/20 04:03:17;;;;;;;6.60;2.78;;;19.70;91.00;;;;;;4015964;29;20081;-55
2023/09/20 04:05:59;;;;;;;;;;;19.70;91.00;;;;;;4004344;29;20400;-54
2023/09/20 04:08:41;;;;;;;4.28;2.67;;;19.70;90.90;;;;;;4016189;29;19967;-56
2023/09/20 04:11:22;;;;;;;8.88;3.72;;;19.70;90.90;;;;;;4016562;29;20136;-50
2023/09/20 04:14:04;;;;;;;6.18;3.05;;;19.70;90.80;;;;;;3999687;29;20060;-53
2023/09/20 04:16:45;;;;;;;;;;;19.70;90.80;;;;;;3996250;29;20549;-55
2023/09/20 04:19:26;;;;;;;6.63;3.17;;;19.70;90.80;;;;;;4013697;29;20019;-54
2023/09/20 04:22:10;;;;;;;9.05;2.80;;;19.70;90.90;;;;;;3981509;29;20294;-51
2023/09/20 04:24:50;;;;;;;8.52;3.30;;;19.70;90.80;;;;;;3998066;29;20056;-53
2023/09/20 04:27:32;;;;;;;5.63;3.10;;;19.70;90.80;;;;;;4001542;29;20129;-58
2023/09/20 04:30:14;;;;;;;9.32;3.08;;;19.70;90.80;;;;;;4013693;29;20064;-59
2023/09/20 04:32:56;;;;;;;8.50;3.13;;;19.70;90.70;;;;;;3999783;29;20060;-59
2023/09/20 04:35:43;;;;;;;8.77;3.15;;;19.70;90.70;;;;;;4000121;29;20159;-56
2023/09/20 04:38:31;;;;;;;8.65;3.33;;;19.70;90.60;;;;;;4002217;29;20064;-42
2023/09/20 04:41:13;;;;;;;6.60;2.58;;;19.70;90.50;;;;;;4012806;29;20100;-41
2023/09/20 04:43:54;;;;;;;11.02;2.65;;;19.70;90.50;;;;;;3997463;29;20145;-42
2023/09/20 04:46:36;;;;;;;7.85;3.17;;;19.70;90.50;;;;;;4007370;29;20049;-42
2023/09/20 04:49:20;;;;;;;5.95;2.53;;;19.70;90.50;;;;;;4012982;29;20507;-41
2023/09/20 04:52:03;;;;;;;9.07;2.88;;;19.70;90.50;;;;;;4012367;29;20077;-41
2023/09/20 04:54:47;;;;;;;10.40;3.22;;;19.70;90.50;;;;;;4012204;29;20053;-50
2023/09/20 04:57:28;;;;;;;7.78;2.78;;;19.70;90.40;;;;;;4012153;29;20065;-49
2023/09/20 05:00:10;;;;;;;6.68;3.13;;;19.70;90.40;;;;;;4012120;29;20048;-41
2023/09/20 05:02:52;;;;;;;6.10;3.00;;;19.70;90.30;;;;;;4012482;29;20057;-41
2023/09/20 05:05:34;;;;;;;6.65;2.60;;;19.70;90.30;;;;;;4001837;29;20198;-55
2023/09/20 05:08:16;;;;;;;9.30;3.10;;;19.70;90.30;;;;;;4001799;29;20578;-49
2023/09/20 05:10:58;;;;;;;8.80;3.20;;;19.70;90.40;;;;;;4012151;29;20148;-48
2023/09/20 05:13:41;;;;;;;9.35;3.35;;;19.70;90.30;;;;;;3999151;29;20067;-41
2023/09/20 05:16:22;;;;;;;9.98;3.70;;;19.70;90.20;;;;;;4001321;29;20121;-41
2023/09/20 05:19:04;;;;;;;7.00;3.03;;;19.70;90.20;;;;;;4011492;29;20061;-51
2023/09/20 05:21:46;;;;;;;6.15;2.65;;;19.70;90.20;;;;;;4000985;29;20060;-41
2023/09/20 05:24:27;;;;;;;4.65;2.70;;;19.70;90.10;;;;;;4012841;29;20064;-41
2023/09/20 05:27:09;;;;;;;7.45;2.88;;;19.70;90.10;;;;;;4012430;29;20091;-41
2023/09/20 05:29:52;;;;;;;6.13;2.65;;;19.70;90.10;;;;;;4000816;29;20060;-42
2023/09/20 05:32:35;;;;;;;10.15;3.10;;;19.70;90.20;;;;;;4000816;29;20067;-52
2023/09/20 05:35:17;;;;;;;6.78;2.83;;;19.70;90.30;;;;;;4012863;29;20125;-47
2023/09/20 05:37:59;;;;;;;3.88;2.40;;;19.70;90.20;;;;;;3997241;29;20053;-51
2023/09/20 05:40:42;;;;;;;5.03;2.70;;;19.70;90.20;;;;;;3996790;29;20057;-42
2023/09/20 05:43:25;;;;;;;5.57;2.42;;;19.70;90.20;;;;;;3999222;29;20061;-42
2023/09/20 05:46:07;;;;;;;8.20;3.00;;;19.70;90.10;;;;;;4012490;29;20055;-51
2023/09/20 05:48:48;;;;;;;5.65;2.60;;;19.70;90.10;;;;;;4012531;29;20430;-50
2023/09/20 05:51:30;;;;;;;6.78;2.58;;;19.70;90.10;;;;;;4012829;29;20055;-48
2023/09/20 05:54:11;;;;;;;;;;;19.70;90.10;;;;;;4003350;29;20173;-49
2023/09/20 05:56:53;;;;;;;5.65;3.17;;;19.70;90.10;;;;;;4012495;29;19935;-50
2023/09/20 05:59:35;;;;;;;10.63;3.05;;;19.70;90.10;;;;;;4012364;29;20060;-51
2023/09/20 06:02:16;;;;;;;4.97;2.42;;;19.70;90.10;;;;;;4013055;29;20138;-48
2023/09/20 06:04:57;;;;;;;6.45;2.70;;;19.70;90.10;;;;;;4011954;29;20049;-51
2023/09/20 06:07:40;;;;;;;5.15;2.70;;;19.70;90.10;;;;;;4012346;29;20061;-49
2023/09/20 06:10:22;;;;;;;6.13;2.65;;;19.70;90.10;;;;;;4012391;29;20060;-49
2023/09/20 06:13:05;;;;;;;5.60;2.53;;;19.70;90.10;;;;;;3997193;29;20061;-51
2023/09/20 06:15:48;;;;;;;5.53;2.75;;;19.70;90.10;;;;;;4009657;29;20105;-41
2023/09/20 06:18:29;;;;;;;6.05;2.55;;;19.70;90.10;;;;;;4012634;29;20051;-50
2023/09/20 06:21:10;;;;;;;8.20;2.25;;;19.70;90.10;;;;;;4012566;29;20072;-52
2023/09/20 06:23:51;;;;;;;5.97;2.35;;;19.70;90.10;;;;;;4012152;29;20405;-50
2023/09/20 06:26:32;;;;;;;4.43;1.90;;;19.70;90.00;;;;;;3996688;29;20072;-51
2023/09/20 06:29:14;;;;;;;3.70;2.30;;;19.70;90.00;;;;;;3996700;29;20056;-42
2023/09/20 06:31:57;;;;;;;6.18;2.60;;;19.70;90.00;;;;;;4007576;29;20080;-42
2023/09/20 06:34:38;;;;;;;7.13;2.35;;;19.70;90.00;;;;;;4009899;29;20060;-42
2023/09/20 06:37:33;;;;;;;4.25;2.63;;;19.70;90.10;;;;;;4008117;29;20908;-49
2023/09/20 06:40:22;;;;;;;4.57;2.20;;;19.70;90.80;;;;;;4010658;29;20060;-51
2023/09/20 06:43:03;;;;;;;4.88;2.78;;;19.70;91.10;;;;;;4008728;29;20064;-41
2023/09/20 06:45:50;;;;;;;5.80;2.90;;;19.70;91.20;;;;;;4011938;29;20060;-49
2023/09/20 06:48:33;;;;;;;5.30;2.25;;;19.70;91.10;;;;;;4011548;29;20457;-52
2023/09/20 06:51:17;;;;;;;8.82;2.85;;;19.70;90.90;;;;;;4011351;29;20133;-48
2023/09/20 06:53:59;;;;;;;4.60;2.05;;;19.70;90.90;;;;;;4010936;29;20465;-53
2023/09/20 06:56:41;;;;;;;;;;;19.70;90.70;;;;;;4011932;29;20061;-49
2023/09/20 06:59:22;;;;;;;9.82;2.10;;;19.70;90.60;;;;;;4011007;29;19931;-50
2023/09/20 07:02:03;;;;;;;3.08;2.13;;;19.70;90.50;;;;;;4011406;29;20116;-49
2023/09/20 07:04:47;;;;;;;5.13;2.10;;;19.70;90.50;;;;;;4009879;29;20085;-51
2023/09/20 07:07:28;;;;;;;5.53;2.10;;;19.70;90.40;;;;;;4011433;29;20052;-49
2023/09/20 07:10:10;;;;;;;5.53;2.15;;;19.70;90.40;;;;;;4011212;29;20060;-42
2023/09/20 07:12:53;;;;;;;4.20;2.30;;;19.70;90.40;;;;;;4010540;29;20072;-43
2023/09/20 07:15:35;;;;;;;7.60;2.50;;;19.70;90.40;;;;;;4009054;29;20159;-45
2023/09/20 07:18:17;;;;;;;4.65;2.33;;;19.70;90.30;;;;;;4010910;29;20064;-41
2023/09/20 07:21:02;;;;;;;5.72;2.22;;;19.70;90.30;;;;;;4010703;29;20808;-41
2023/09/20 07:23:43;;;;;;;7.82;2.60;;;19.70;90.30;;;;;;4010719;29;20077;-48
2023/09/20 07:26:25;;;;;;;4.07;2.15;;;19.70;90.30;;;;;;4011583;29;20056;-53
2023/09/20 07:29:07;;;;;;;2.80;2.60;;;19.70;90.70;;;;;;4020374;29;20085;-41
2023/09/20 07:31:48;;;;;;;5.07;2.13;;;19.70;90.40;;;;;;4002486;29;20114;-41
2023/09/20 07:34:33;;;;;;;4.55;2.55;;;19.80;90.40;;;;;;4011397;29;20173;-41
2023/09/20 07:37:16;;;;;;;6.07;2.33;;;19.80;90.40;;;;;;4010024;29;20064;-41
2023/09/20 07:40:01;;;;;;;10.73;2.92;;;19.90;90.30;;;;;;4011095;29;20103;-41
2023/09/20 07:42:41;;;;;;;2.53;2.33;;;19.90;90.30;;;;;;3982719;29;20501;-41
2023/09/20 07:45:24;;;;;;;8.07;3.20;;;20.00;90.10;;;;;;4011213;29;20144;-41
2023/09/20 07:48:11;;;;;;;4.10;2.20;;;20.10;90.10;;;;;;4010774;29;20625;-42
2023/09/20 07:50:53;;;;;;;4.65;2.28;;;20.10;90.00;;;;;;4013966;29;20098;-54
2023/09/20 07:53:35;;;;;;;7.65;2.63;;;20.10;90.00;;;;;;4012902;29;20060;-51
2023/09/20 07:56:17;;;;;;;4.40;2.70;;;20.20;89.90;;;;;;4001256;29;20056;-42
2023/09/20 07:58:58;;;;;;;4.93;2.72;;;20.20;89.80;;;;;;4014033;29;20505;-42
2023/09/20 08:01:42;;;;;;;5.43;2.50;;;20.30;89.70;;;;;;4013550;29;20065;-43
2023/09/20 08:04:23;;;;;;;6.40;3.20;;;20.30;89.30;;;;;;4013425;29;20504;-51
2023/09/20 08:07:06;;;;;;;6.50;2.95;;;20.30;89.20;;;;;;4013597;29;20583;-52
2023/09/20 08:09:49;;;;;;;7.80;2.92;;;20.40;89.10;;;;;;4013370;29;20051;-51
2023/09/20 08:12:31;;;;;;;3.45;2.40;;;20.40;88.80;;;;;;4009178;29;20076;-50
2023/09/20 08:15:13;;;;;;;9.27;3.17;;;20.40;88.60;;;;;;4011096;29;20055;-42
2023/09/20 08:20:54;;;;;;;3.90;2.25;;;20.50;88.50;;;;;;4012927;29;20413;-42
2023/09/20 08:59:51;;;;;;;6.00;2.40;;;20.60;88.90;;;;;;4012430;29;20080;-53
2023/09/20 09:02:33;;;;;;;5.18;2.47;;;20.60;88.90;;;;;;4021113;29;20574;-53
2023/09/20 09:05:15;;;;;;;4.15;2.53;;;20.60;88.90;;;;;;4012661;29;20603;-49
2023/09/20 09:07:58;;;;;;;6.00;2.58;;;20.60;88.80;;;;;;4017486;29;20186;-49
2023/09/20 09:10:39;;;;;;;3.35;2.63;;;20.60;88.60;;;;;;4012946;29;20088;-49
2023/09/20 09:13:21;;;;;;;9.85;2.40;;;20.60;88.50;;;;;;4012481;29;20060;-51
2023/09/20 09:16:07;;;;;;;6.47;2.70;;;20.70;88.40;;;;;;4012906;29;20056;-52
2023/09/20 09:18:49;;;;;;;4.75;2.45;;;20.70;88.30;;;;;;4012581;29;20060;-48
2023/09/20 09:21:30;;;;;;;7.15;2.72;;;20.70;88.30;;;;;;4011654;29;20186;-42
2023/09/20 09:24:12;;;;;;;6.22;2.67;;;20.70;88.40;;;;;;4012109;29;20064;-41
2023/09/20 09:27:05;;;;;;;3.65;2.45;;;20.70;88.30;;;;;;4012777;29;20064;-50
2023/09/20 09:29:48;;;;;;;5.13;2.85;;;20.70;88.10;;;;;;3998036;29;20125;-54
2023/09/20 09:32:36;;;;;;;3.75;2.72;;;20.70;88.20;;;;;;4012053;29;20550;-40
2023/09/20 09:35:19;;;;;;;5.13;2.53;;;20.70;88.10;;;;;;4012364;29;20392;-39
2023/09/20 09:38:04;;;;;;;5.88;2.65;;;20.70;88.20;;;;;;4011652;29;20061;-39
2023/09/20 09:40:52;;;;;;;4.05;2.40;;;20.80;88.10;;;;;;4011791;29;20060;-40
2023/09/20 09:43:33;;;;;;;5.93;2.83;;;20.80;87.80;;;;;;4011787;29;20056;-38
2023/09/20 09:46:15;;;;;;;5.78;2.38;;;20.80;87.70;;;;;;3995887;29;20085;-49
2023/09/20 09:48:58;;;;;;;5.78;2.35;;;20.80;87.60;;;;;;4009238;29;20128;-48
2023/09/20 09:51:45;;;;;;;4.82;2.55;;;20.80;87.40;;;;;;4012172;29;20057;-46
2023/09/20 09:54:27;;;;;;;4.53;2.30;;;20.80;87.20;;;;;;4011128;29;20072;-49
2023/09/20 09:57:07;;;;;;;8.82;3.00;;;20.80;87.30;;;;;;4010613;29;20057;-47
2023/09/20 09:59:50;;;;;;;5.45;2.40;;;20.80;87.20;;;;;;3986006;29;20061;-51
2023/09/20 10:02:32;;;;;;;5.43;2.90;;;20.80;87.10;;;;;;3995954;29;20053;-48
2023/09/20 10:05:20;;;;;;;5.65;2.00;;;20.80;87.10;;;;;;3996802;29;20060;-50
2023/09/20 10:08:05;;;;;;;5.40;2.90;;;20.80;87.30;;;;;;4011526;29;20059;-49
2023/09/20 10:10:50;;;;;;;2.92;2.60;;;20.80;87.30;;;;;;4012444;29;20382;-49
2023/09/20 10:13:33;;;;;;;6.18;2.60;;;20.80;87.30;;;;;;4007025;29;20052;-53
2023/09/20 10:16:16;;;;;;;4.63;2.45;;;20.80;88.20;;;;;;4011576;29;20056;-40
2023/09/20 10:18:57;;;;;;;4.28;2.45;;;20.80;87.30;;;;;;3996319;29;20053;-39
2023/09/20 10:22:01;;;;;;;4.78;2.15;;;20.80;87.30;;;;;;4011657;29;20060;-40
2023/09/20 10:24:53;;;;;;;4.93;2.40;;;20.80;87.50;;;;;;4010347;29;20064;-41
2023/09/20 10:27:35;;;;;;;5.32;2.45;;;20.80;87.50;;;;;;3996202;29;20060;-40
2023/09/20 10:30:16;;;;;;;2.25;2.10;;;20.80;87.50;;;;;;3996709;29;20061;-40
2023/09/20 10:32:59;;;;;;;2.50;2.30;;;20.80;87.60;;;;;;3996374;29;20060;-40
2023/09/20 10:35:41;;;;;;;5.32;2.40;;;20.80;87.70;;;;;;3996668;29;20061;-40
2023/09/20 10:38:25;;;;;;;2.28;2.00;;;20.80;87.70;;;;;;4009149;29;20060;-40
2023/09/20 10:41:10;;;;;;;3.97;2.58;;;20.80;87.60;;;;;;4011428;29;20089;-41
2023/09/20 10:43:54;;;;;;;3.42;2.00;;;20.80;87.60;;;;;;4010882;29;20056;-41
2023/09/20 10:46:37;;;;;;;2.72;1.90;;;20.80;87.80;;;;;;4011068;29;20413;-42
2023/09/20 10:49:40;;;;;;;4.68;2.22;;;20.80;88.30;;;;;;4011671;29;20462;-50
2023/09/20 10:52:57;;;;;;;2.22;1.70;;;20.80;88.00;;;;;;4010660;29;20068;-51
2023/09/20 10:55:40;;;;;;;3.72;1.88;;;20.80;88.00;;;;;;3999393;29;20140;-50
2023/09/20 10:58:23;;;;;;;2.70;1.90;;;20.80;88.10;;;;;;4009351;29;20060;-49
2023/09/20 11:01:04;;;;;;;4.07;1.80;;;20.80;88.00;;;;;;3996490;29;20053;-53
2023/09/20 11:03:45;;;;;;;4.82;2.08;;;20.80;88.00;;;;;;4009794;29;20084;-50
2023/09/20 11:06:26;;;;;;;3.72;1.85;;;20.80;88.10;;;;;;4011001;29;20084;-50
2023/09/20 11:09:11;;;;;;;2.78;2.00;;;20.80;88.10;;;;;;4011117;29;20195;-49
2023/09/20 11:11:54;;;;;;;2.45;2.20;;;20.80;88.00;;;;;;4011226;29;20064;-50
2023/09/20 11:14:37;;;;;;;3.63;1.70;;;20.80;88.00;;;;;;3996388;29;20513;-49
2023/09/20 11:17:21;;;;;;;2.45;1.70;;;20.80;88.00;;;;;;3996341;29;20175;-50
2023/09/20 11:20:04;;;;;;;3.42;2.10;;;20.80;87.90;;;;;;3996120;29;20494;-50
2023/09/20 11:22:45;;;;;;;1.88;1.67;;;20.80;87.90;;;;;;3996360;29;20056;-51
2023/09/20 11:25:28;;;;;;;3.97;1.60;;;20.80;87.90;;;;;;4011530;29;20404;-39
2023/09/20 11:28:12;;;;;;;2.70;2.00;;;20.70;87.80;;;;;;4014754;29;20060;-42
2023/09/20 11:30:54;;;;;;;2.60;1.70;;;20.70;87.90;;;;;;4013515;29;20074;-41
2023/09/20 11:33:35;;;;;;;3.45;1.70;;;20.70;88.00;;;;;;4014168;29;20049;-41
2023/09/20 11:36:19;;;;;;;2.13;1.90;;;20.70;88.00;;;;;;4014627;29;20062;-41
2023/09/20 11:39:03;;;;;;;4.50;1.92;;;20.70;88.00;;;;;;4014148;29;20061;-41
2023/09/20 11:41:45;;;;;;;2.78;1.70;;;20.70;87.90;;;;;;3999402;29;20065;-50
2023/09/20 11:44:28;;;;;;;2.55;1.80;;;20.70;87.90;;;;;;3998644;29;20066;-49
2023/09/20 11:47:13;;;;;;;2.80;1.70;;;20.70;88.00;;;;;;3999324;29;20454;-49
2023/09/20 11:49:57;;;;;;;2.75;1.88;;;20.70;88.10;;;;;;3998675;29;20473;-51
2023/09/20 11:52:38;;;;;;;4.85;1.73;;;20.70;88.00;;;;;;3999202;29;20512;-50
2023/09/20 11:55:20;;;;;;;2.45;1.55;;;20.70;88.10;;;;;;4014215;29;20048;-50
2023/09/20 11:58:01;;;;;;;3.03;1.73;;;20.70;88.00;;;;;;4014388;29;20099;-50
2023/09/20 12:00:46;;;;;;;4.55;1.60;;;20.70;88.10;;;;;;4014091;29;20068;-40
2023/09/20 12:03:28;;;;;;;2.25;1.60;;;20.70;88.00;;;;;;4014124;29;20044;-41
2023/09/20 12:06:09;;;;;;;2.88;1.98;;;20.80;88.00;;;;;;4013519;29;20056;-41
2023/09/20 12:08:50;;;;;;;4.90;1.90;;;20.80;88.00;;;;;;4013555;29;20162;-42
2023/09/20 12:11:32;;;;;;;2.75;1.90;;;20.80;87.80;;;;;;4012862;29;20060;-41
2023/09/20 12:14:14;;;;;;;2.20;2.00;;;20.80;87.60;;;;;;4013941;29;20570;-42
2023/09/20 12:16:58;;;;;;;2.25;1.70;;;20.80;87.60;;;;;;4013672;29;20501;-41
2023/09/20 12:19:41;;;;;;;2.50;1.60;;;20.80;88.50;;;;;;4013103;29;20517;-49
2023/09/20 12:22:22;;;;;;;5.63;2.17;;;20.80;87.60;;;;;;4002219;29;20199;-53
2023/09/20 12:25:03;;;;;;;6.10;2.30;;;20.80;87.50;;;;;;4012322;29;20167;-53
2023/09/20 12:27:45;;;;;;;2.35;1.98;;;20.80;87.40;;;;;;4010187;29;20076;-51
2023/09/20 12:30:27;;;;;;;2.95;1.77;;;20.80;87.30;;;;;;4013192;29;20048;-49
2023/09/20 12:33:10;;;;;;;6.18;2.30;;;20.80;87.30;;;;;;4013610;29;20091;-52
2023/09/20 12:35:52;;;;;;;5.07;2.15;;;20.90;87.30;;;;;;4013074;29;20056;-51
2023/09/20 12:38:32;;;;;;;2.67;2.25;;;20.90;87.10;;;;;;4013769;29;20060;-49
2023/09/20 12:41:15;;;;;;;;;;;20.90;87.00;;;;;;4014431;29;20109;-52
2023/09/20 12:43:56;;;;;;;4.43;2.38;;;20.90;86.80;;;;;;4013411;29;19930;-50
2023/09/20 12:46:37;;;;;;;3.55;2.22;;;20.90;86.70;;;;;;4013709;29;20457;-51
2023/09/20 12:49:20;;;;;;;2.97;2.58;;;20.90;87.20;;;;;;4013341;29;20056;-50
2023/09/20 12:52:02;;;;;;;2.78;2.17;;;21.00;86.60;;;;;;4013233;29;20076;-49
2023/09/20 12:54:43;;;;;;;6.18;2.63;;;21.00;86.50;;;;;;4011959;29;20053;-50
2023/09/20 12:57:25;;;;;;;3.85;2.33;;;21.00;86.50;;;;;;4013179;29;20053;-48
2023/09/20 13:00:11;;;;;;;3.90;2.75;;;21.00;86.50;;;;;;4012934;29;20059;-49
2023/09/20 13:02:52;;;;;;;2.80;2.58;;;21.00;86.60;;;;;;4013326;29;20136;-49
2023/09/20 13:05:36;;;;;;;4.82;2.78;;;21.00;86.70;;;;;;4012288;29;20087;-50
2023/09/20 13:08:19;;;;;;;4.88;2.50;;;21.10;86.70;;;;;;4013288;29;20064;-50
2023/09/20 13:11:00;;;;;;;2.85;2.20;;;21.10;86.50;;;;;;4013318;29;20461;-50
2023/09/20 13:13:41;;;;;;;5.70;2.70;;;21.10;86.40;;;;;;4012300;29;20061;-50
2023/09/20 13:16:24;;;;;;;6.40;2.53;;;21.10;86.40;;;;;;4012364;29;20401;-48
2023/09/20 13:19:08;;;;;;;3.65;2.47;;;21.10;86.20;;;;;;4007310;29;20053;-52
2023/09/20 13:21:52;;;;;;;2.97;2.70;;;21.10;86.10;;;;;;4002820;29;20072;-51
2023/09/20 13:24:33;;;;;;;4.75;2.38;;;21.10;86.10;;;;;;4005408;29;20052;-42
2023/09/20 13:27:15;;;;;;;5.10;2.42;;;21.20;86.80;;;;;;4012434;29;20508;-42
2023/09/20 13:29:56;;;;;;;3.65;2.70;;;21.10;85.80;;;;;;4013239;29;20101;-42
2023/09/20 13:32:37;;;;;;;;;;;21.10;85.70;;;;;;4010925;29;20543;-41
2023/09/20 13:35:18;;;;;;;3.50;2.70;;;21.20;85.90;;;;;;4012770;29;19967;-42
2023/09/20 13:38:03;;;;;;;3.35;2.45;;;21.20;85.90;;;;;;4012654;29;20072;-41
2023/09/20 13:40:46;;;;;;;2.80;2.50;;;21.20;86.00;;;;;;4012990;29;20064;-40
2023/09/20 13:43:28;;;;;;;3.53;2.47;;;21.20;86.20;;;;;;4011186;29;20520;-41
2023/09/20 13:46:17;;;;;;;4.70;2.80;;;21.20;86.30;;;;;;3997377;29;20057;-41
2023/09/20 13:48:58;;;;;;;3.03;2.70;;;21.30;86.30;;;;;;3995324;29;20065;-41
2023/09/20 13:51:39;;;;;;;3.75;2.70;;;21.30;86.30;;;;;;3997602;29;20148;-40
2023/09/20 13:54:22;;;;;;;4.05;2.90;;;21.40;86.10;;;;;;4001701;29;20056;-40
2023/09/20 13:57:03;;;;;;;2.78;2.47;;;21.40;85.90;;;;;;4011263;29;20064;-41
2023/09/20 13:59:47;;;;;;;4.20;2.50;;;21.50;85.80;;;;;;4011868;29;20060;-40
2023/09/20 14:02:37;;;;;;;3.40;2.92;;;21.50;85.60;;;;;;4012321;29;20081;-41
2023/09/20 14:05:33;;;;;;;2.65;2.40;;;21.50;85.30;;;;;;3988802;29;20521;-41
2023/09/20 14:08:13;;;;;;;4.00;2.70;;;21.50;85.20;;;;;;4010318;29;20557;-41
2023/09/20 14:10:56;;;;;;;4.03;2.40;;;21.50;85.10;;;;;;4010586;29;20056;-42
2023/09/20 14:13:37;;;;;;;5.38;2.80;;;21.50;84.80;;;;;;4011282;29;20505;-43
2023/09/20 14:16:19;;;;;;;5.03;2.33;;;21.50;84.60;;;;;;4011321;29;20767;-50
2023/09/20 14:19:00;;;;;;;5.50;2.35;;;21.50;84.50;;;;;;4010532;29;20053;-41
2023/09/20 14:21:41;;;;;;;3.40;2.60;;;21.50;84.60;;;;;;4011367;29;20072;-40
2023/09/20 14:24:22;;;;;;;3.55;2.35;;;21.60;84.60;;;;;;4010926;29;20137;-48
2023/09/20 14:27:05;;;;;;;;;;;21.50;84.60;;;;;;4011454;29;20056;-50
2023/09/20 14:29:46;;;;;;;3.05;1.75;;;21.60;84.60;;;;;;4010016;29;19935;-49
2023/09/20 14:32:26;;;;;;;4.68;2.38;;;21.50;84.50;;;;;;4000786;29;20060;-41
2023/09/20 14:35:12;;;;;;;3.13;2.30;;;21.60;84.50;;;;;;3998187;29;20052;-40
2023/09/20 14:37:55;;;;;;;2.15;1.98;;;21.50;84.50;;;;;;4011375;29;20057;-48
2023/09/20 14:40:37;;;;;;;4.25;3.58;;;21.60;85.50;;;;;;4011011;29;20060;-49
2023/09/20 14:43:20;;;;;;;3.90;2.10;;;21.50;84.60;;;;;;4012236;29;20073;-40
2023/09/20 14:46:02;;;;;;;3.85;2.13;;;21.60;84.80;;;;;;3999830;29;20060;-40
2023/09/20 14:48:44;;;;;;;4.45;2.33;;;21.50;84.80;;;;;;4010854;29;20061;-49
2023/09/20 14:51:26;;;;;;;2.42;2.22;;;21.60;85.00;;;;;;4011344;29;20080;-49